KGJT

Grand Junction Regional Airport

Grand Junction, Colorado, USA
METAR KGJT 200706Z 13006KT 4SM -SN BR BKN014 OVC029 M06/M07 A2974 RMK AO2 SNB0659 P0000 T10561072 $
Observed Flight Rules
Feb-20 @ 07:06 UTC (15 minutes ago) Marginal Visual Flight Rules
Wind Visibility Clouds Conditions
130° at 6 knots 4 miles
  • Broken at 1,400' AGL
  • Overcast at 2,900' AGL
  • Light Snow
  • Mist
Temperatures Readings Precipitation
Current -6°C / 21°F
Dewpoint -7°C / 19°F
Humidity 93%
Altimeter 29.74" Hg
Pressure 1007 hPa
Elevation 1475
Current Rain 0.005
METAR KGJT 200706Z 13006KT 4SM -SN BR BKN014 OVC029 M06/M07 A2974 RMK AO2 SNB0659 P0000 T10561072 $
Observed Flight Rules
Feb-20 @ 07:06 UTC
(15 minutes ago)
MVFR
Wind Visibility
130° at 6 knots 4 miles
Clouds
  • Broken at 1,400' AGL
  • Overcast at 2,900' AGL
Conditions
  • Light Snow
  • Mist
Temperature Dewpoint
-6°C / 21°F -7°C / 19°F
Humidity Altimeter Pressure
93% 29.74" Hg 1007 hPa
Current Rain
0.005